Time;durP1;ratioP1;P1;durP2;ratioP2;P2;SDS_P1;SDS_P2;PMS_P1;PMS_P2;Temp;Humidity;BMP_temperature;BMP_pressure;BME280_temperature;BME280_humidity;BME280_pressure;Samples;Min_cycle;Max_cycle;Signal;HPM_P1;HPM_P2
2022/03/16 00:01:21;;;;;;;29.00;13.70;;;;;;;1.57;100.00;101842.86;107465;1283;62347;-74
2022/03/16 00:03:49;;;;;;;30.00;13.30;;;;;;;1.57;100.00;101840.06;107479;1282;74822;-74
2022/03/16 00:06:20;;;;;;;33.70;14.00;;;;;;;1.57;100.00;101845.30;107490;1282;72470;-73
2022/03/16 00:08:52;;;;;;;37.90;14.40;;;;;;;1.56;100.00;101849.02;107450;1282;73118;-74
2022/03/16 00:11:22;;;;;;;34.80;15.90;;;;;;;1.56;100.00;101850.61;107380;1284;60533;-75
2022/03/16 00:13:49;;;;;;;33.00;14.90;;;;;;;1.56;100.00;101848.33;107488;1282;60627;-75
2022/03/16 00:16:19;;;;;;;38.00;13.80;;;;;;;1.56;100.00;101851.45;107376;1282;76036;-75
2022/03/16 00:18:54;;;;;;;29.70;13.60;;;;;;;1.56;100.00;101847.09;107493;1282;71362;-75
2022/03/16 00:21:21;;;;;;;33.60;15.10;;;;;;;1.56;100.00;101855.81;107522;1282;72948;-74
2022/03/16 00:23:48;;;;;;;33.60;16.00;;;;;;;1.56;100.00;101860.17;107455;1283;62008;-74
2022/03/16 00:26:25;;;;;;;40.00;15.20;;;;;;;1.58;100.00;101864.61;107307;1284;63460;-74
2022/03/16 00:29:32;;;;;;;46.90;19.20;;;;;;;1.59;100.00;101865.38;107510;1281;76157;-74
2022/03/16 00:32:18;;;;;;;37.00;16.90;;;;;;;1.64;100.00;101869.84;107390;1284;73806;-74
2022/03/16 00:35:05;;;;;;;45.80;16.50;;;;;;;1.68;100.00;101865.59;107499;1282;74051;-73
2022/03/16 00:37:37;;;;;;;33.00;15.00;;;;;;;1.71;100.00;101869.92;107477;1281;61496;-74
2022/03/16 00:40:37;;;;;;;;;;;;;;;;;;;;;
2022/03/16 00:43:06;;;;;;;36.30;14.20;;;;;;;1.73;100.00;101871.08;107371;1282;75889;-73
2022/03/16 00:45:38;;;;;;;36.80;16.10;;;;;;;1.73;100.00;101874.52;107544;1281;71230;-73
2022/03/16 00:48:04;;;;;;;41.10;17.00;;;;;;;1.75;100.00;101875.52;107424;1282;73076;-74
2022/03/16 00:50:44;;;;;;;37.90;17.20;;;;;;;1.75;100.00;101874.80;107319;1284;60418;-74
2022/03/16 00:53:10;;;;;;;29.30;15.30;;;;;;;1.75;100.00;101877.25;107457;1282;62170;-74
2022/03/16 00:55:46;;;;;;;37.90;16.90;;;;;;;1.75;100.00;101878.80;107384;1284;74913;-74
2022/03/16 00:58:24;;;;;;;36.30;17.00;;;;;;;1.77;100.00;101879.73;107543;1282;70085;-74
2022/03/16 01:01:09;;;;;;;;;;;;;;;;;;;;;
2022/03/16 01:03:58;;;;;;;35.00;15.60;;;;;;;1.81;100.00;101882.61;107512;1282;61377;-72
2022/03/16 01:06:37;;;;;;;38.40;16.30;;;;;;;1.82;100.00;101883.59;107461;1280;60357;-72
2022/03/16 01:09:13;;;;;;;38.00;17.30;;;;;;;1.83;100.00;101885.34;107491;1283;75139;-73
2022/03/16 01:12:02;;;;;;;;;;;;;;;;;;;;;
2022/03/16 01:14:38;;;;;;;36.80;15.50;;;;;;;1.82;100.00;101882.38;107451;1284;74088;-73
2022/03/16 01:20:42;;;;;;;38.60;17.30;;;;;;;1.85;100.00;101884.85;107493;1270;60722;-73
2022/03/16 01:23:16;;;;;;;38.70;15.00;;;;;;;1.85;100.00;101881.38;107475;1282;75012;-73
2022/03/16 01:26:30;;;;;;;35.00;14.80;;;;;;;1.84;100.00;101885.94;107431;1282;71566;-73
2022/03/16 01:29:17;;;;;;;41.60;16.80;;;;;;;1.84;100.00;101886.12;107346;1282;74031;-73
2022/03/16 01:31:46;;;;;;;37.10;15.10;;;;;;;1.83;100.00;101886.16;107434;1283;64999;-73
2022/03/16 01:34:54;;;;;;;32.80;16.20;;;;;;;1.83;100.00;101886.55;107439;1282;60330;-74
2022/03/16 01:37:45;;;;;;;41.90;15.80;;;;;;;1.81;100.00;101888.41;107623;1282;74397;-73
2022/03/16 01:41:14;;;;;;;33.00;13.80;;;;;;;1.79;100.00;101891.15;107555;1282;72244;-74
2022/03/16 01:44:01;;;;;;;30.80;14.40;;;;;;;1.75;100.00;101885.09;107351;1280;74887;-74
2022/03/16 01:46:37;;;;;;;31.80;13.20;;;;;;;1.72;100.00;101882.30;107598;1282;62216;-74
2022/03/16 01:49:15;;;;;;;27.10;13.20;;;;;;;1.68;100.00;101882.89;107634;1280;60378;-73
2022/03/16 01:52:12;;;;;;;;;;;;;;;;;;;;;
2022/03/16 01:55:30;;;;;;;;;;;;;;;;;;;;;
2022/03/16 01:58:00;;;;;;;19.10;10.10;;;;;;;1.47;100.00;101879.30;107132;1284;73644;-73
2022/03/16 02:00:51;;;;;;;19.70;10.10;;;;;;;1.41;100.00;101879.52;107580;1282;62039;-73
2022/03/16 02:03:51;;;;;;;;;;;;;;;;;;;;;
2022/03/16 02:06:39;;;;;;;16.20;9.60;;;;;;;1.27;100.00;101883.80;107336;1284;76160;-73
2022/03/16 02:09:38;;;;;;;;;;;;;;;;;;;;;
2022/03/16 02:12:26;;;;;;;16.10;8.90;;;;;;;1.16;100.00;101888.23;107444;1282;73623;-73
2022/03/16 02:15:13;;;;;;;17.80;9.30;;;;;;;1.11;100.00;101886.57;107442;1282;62817;-74
2022/03/16 02:18:20;;;;;;;15.00;9.20;;;;;;;1.05;100.00;101885.48;107594;1282;60499;-74
2022/03/16 02:20:51;;;;;;;14.20;8.60;;;;;;;0.99;100.00;101891.22;107455;1270;75025;31
2022/03/16 02:23:17;;;;;;;16.30;8.70;;;;;;;0.94;100.00;101892.54;107404;1284;71388;-72
2022/03/16 02:25:53;;;;;;;14.60;8.60;;;;;;;0.90;100.00;101896.61;107423;1283;74141;-72
2022/03/16 02:28:21;;;;;;;18.10;9.20;;;;;;;0.84;100.00;101895.70;107481;1283;61368;-72
2022/03/16 02:30:47;;;;;;;19.20;10.20;;;;;;;0.78;100.00;101898.59;107461;1282;60743;-72
2022/03/16 02:33:14;;;;;;;18.80;9.50;;;;;;;0.73;100.00;101901.14;107480;1282;75986;-72
2022/03/16 02:35:41;;;;;;;14.30;8.90;;;;;;;0.70;100.00;101904.28;107456;1284;71388;-72
2022/03/16 02:38:08;;;;;;;20.80;11.60;;;;;;;0.65;100.00;101902.64;107430;1283;72952;-72
2022/03/16 02:40:35;;;;;;;20.70;10.90;;;;;;;0.61;100.00;101906.64;107455;1283;61472;-72
2022/03/16 02:43:05;;;;;;;18.30;10.20;;;;;;;0.56;100.00;101905.16;107463;1284;60576;-72
2022/03/16 02:45:32;;;;;;;25.50;12.60;;;;;;;0.53;100.00;101912.14;107535;1282;74882;-72
2022/03/16 02:47:58;;;;;;;19.30;11.30;;;;;;;0.48;100.00;101914.11;107452;1283;71391;-73
2022/03/16 02:50:25;;;;;;;19.00;11.30;;;;;;;0.44;100.00;101915.40;107428;1282;74138;-73
2022/03/16 02:52:52;;;;;;;21.10;10.60;;;;;;;0.41;100.00;101914.33;107413;1283;61237;-72
2022/03/16 02:55:39;;;;;;;27.00;12.90;;;;;;;0.36;100.00;101911.58;107485;1280;62635;-72
2022/03/16 02:58:08;;;;;;;20.60;10.20;;;;;;;0.32;100.00;101915.13;107469;1284;75970;-72
2022/03/16 03:00:35;;;;;;;22.50;12.40;;;;;;;0.26;100.00;101917.52;107505;1281;72493;-73
2022/03/16 03:03:22;;;;;;;25.60;12.50;;;;;;;0.22;100.00;101918.24;107462;1283;74173;-73
2022/03/16 03:05:50;;;;;;;22.40;11.30;;;;;;;0.17;100.00;101918.12;107416;1284;61112;-72
2022/03/16 03:08:17;;;;;;;24.90;11.90;;;;;;;0.14;100.00;101914.46;107467;1284;60363;-72
2022/03/16 03:10:51;;;;;;;23.20;11.60;;;;;;;0.10;100.00;101918.31;107479;1282;74909;-72
2022/03/16 03:13:21;;;;;;;25.50;13.30;;;;;;;0.06;100.00;101920.79;107506;1282;71342;-73
2022/03/16 03:15:48;;;;;;;22.30;11.40;;;;;;;0.02;100.00;101920.44;107458;1282;74629;-73
2022/03/16 03:18:15;;;;;;;19.60;11.00;;;;;;;-0.02;100.00;101923.07;107425;1283;61611;-73
2022/03/16 03:20:42;;;;;;;20.10;10.80;;;;;;;-0.06;100.00;101922.39;107405;1284;60456;-73
2022/03/16 03:23:08;;;;;;;19.60;9.90;;;;;;;-0.09;100.00;101919.96;107446;1284;75044;-72
2022/03/16 03:25:35;;;;;;;19.80;11.10;;;;;;;-0.14;100.00;101923.66;107451;1282;71390;-72
2022/03/16 03:28:02;;;;;;;24.20;11.60;;;;;;;-0.17;100.00;101922.95;107390;1284;72879;-72
2022/03/16 03:30:28;;;;;;;23.40;12.20;;;;;;;-0.21;100.00;101921.92;107425;1282;62708;-72
2022/03/16 03:33:04;;;;;;;21.80;11.00;;;;;;;-0.25;100.00;101916.37;107479;1283;60390;-72
2022/03/16 03:35:31;;;;;;;9.00;4.30;;;;;;;-0.29;100.00;101915.69;107411;1283;74164;-72
2022/03/16 03:37:58;;;;;;;18.00;9.40;;;;;;;-0.34;100.00;101916.83;107403;1284;71093;-72
2022/03/16 03:40:24;;;;;;;21.70;10.20;;;;;;;-0.36;100.00;101918.32;107450;1283;60164;-73
2022/03/16 03:42:51;;;;;;;16.80;9.40;;;;;;;-0.35;100.00;101918.81;107386;1282;61441;-73
2022/03/16 03:45:20;;;;;;;18.60;10.30;;;;;;;-0.36;100.00;101913.29;107431;1282;60394;-73
2022/03/16 03:47:54;;;;;;;20.70;11.30;;;;;;;-0.36;100.00;101911.03;107394;1284;75404;-73
2022/03/16 03:50:23;;;;;;;13.30;8.00;;;;;;;-0.35;100.00;101907.50;107450;1284;71243;-72
2022/03/16 03:52:50;;;;;;;17.20;9.00;;;;;;;-0.39;100.00;101907.52;107387;1284;72982;-72
2022/03/16 03:55:16;;;;;;;8.20;4.80;;;;;;;-0.45;100.00;101910.55;107382;1282;60365;-72
2022/03/16 03:57:43;;;;;;;11.00;6.30;;;;;;;-0.49;100.00;101913.91;107447;1283;60642;-72
2022/03/16 04:00:17;;;;;;;16.90;9.80;;;;;;;-0.54;100.00;101911.85;107443;1282;74998;-72
2022/03/16 04:02:51;;;;;;;18.40;9.40;;;;;;;-0.56;100.00;101909.38;107444;1282;72530;-72
2022/03/16 04:05:19;;;;;;;18.70;10.60;;;;;;;-0.55;100.00;101903.60;107445;1282;74012;-73
2022/03/16 04:07:46;;;;;;;17.00;7.90;;;;;;;-0.54;100.00;101902.98;107427;1282;61539;-72
2022/03/16 04:10:12;;;;;;;12.30;6.80;;;;;;;-0.53;100.00;101901.77;107461;1282;62096;-72
2022/03/16 04:12:39;;;;;;;11.30;6.60;;;;;;;-0.55;100.00;101901.85;107477;1282;76097;-73
2022/03/16 04:15:06;;;;;;;20.40;9.90;;;;;;;-0.58;100.00;101899.70;107413;1283;72595;-73
2022/03/16 04:17:33;;;;;;;16.40;8.40;;;;;;;-0.60;100.00;101902.59;107402;1282;73951;-72
2022/03/16 04:20:00;;;;;;;14.20;8.60;;;;;;;-0.63;100.00;101904.84;107460;1281;61394;-72
2022/03/16 04:22:27;;;;;;;11.50;6.30;;;;;;;-0.67;100.00;101904.28;107500;1282;61871;-72
2022/03/16 04:25:00;;;;;;;13.60;7.00;;;;;;;-0.69;100.00;101903.56;107511;1282;75133;-72
2022/03/16 04:27:30;;;;;;;17.20;8.10;;;;;;;-0.71;100.00;101904.66;107397;1284;71559;-72
2022/03/16 04:29:59;;;;;;;9.00;4.60;;;;;;;-0.70;100.00;101902.38;107446;1282;73022;-72
2022/03/16 04:34:19;;;;;;;8.30;5.10;;;;;;;-0.65;100.00;101908.41;101973;1311;600983;-70
2022/03/16 04:36:47;;;;;;;5.70;3.60;;;;;;;-0.66;100.00;101908.45;104580;1284;59385;-71
2022/03/16 04:39:14;;;;;;;8.90;5.40;;;;;;;-0.66;100.00;101911.91;104515;1284;61813;-70
2022/03/16 04:41:48;;;;;;;9.00;5.50;;;;;;;-0.66;100.00;101910.02;104449;1286;72446;-72
2022/03/16 04:44:14;;;;;;;9.40;5.90;;;;;;;-0.66;100.00;101908.24;104985;1276;71555;-71
2022/03/16 04:46:41;;;;;;;6.40;4.10;;;;;;;-0.65;100.00;101906.83;105054;1274;73168;-72
2022/03/16 04:49:07;;;;;;;8.60;5.00;;;;;;;-0.66;100.00;101908.29;105091;1273;188105;-72
2022/03/16 04:51:34;;;;;;;7.00;4.60;;;;;;;-0.68;100.00;101909.57;105308;1271;59417;-73
2022/03/16 04:54:01;;;;;;;11.60;7.80;;;;;;;-0.69;100.00;101912.93;105289;1273;72877;-76
2022/03/16 04:56:27;;;;;;;9.70;6.10;;;;;;;-0.68;100.00;101914.42;105230;1273;72718;-71
2022/03/16 04:58:54;;;;;;;8.80;5.40;;;;;;;-0.69;100.00;101917.08;105126;1273;73112;-72
2022/03/16 05:01:21;;;;;;;15.10;8.80;;;;;;;-0.69;100.00;101922.48;105227;1273;59625;-70
2022/03/16 05:03:47;;;;;;;9.30;6.00;;;;;;;-0.68;100.00;101924.17;105248;1273;60535;-71
2022/03/16 05:06:14;;;;;;;12.70;7.80;;;;;;;-0.69;100.00;101924.21;105714;1273;74381;-71
2022/03/16 05:08:41;;;;;;;8.20;5.80;;;;;;;-0.69;100.00;101928.38;105245;1273;72699;-70
2022/03/16 05:11:08;;;;;;;13.60;8.40;;;;;;;-0.68;100.00;101928.69;105259;1273;59740;-72
2022/03/16 05:13:35;;;;;;;14.70;8.80;;;;;;;-0.68;100.00;101931.45;105394;1271;61579;-73
2022/03/16 05:16:02;;;;;;;16.10;9.30;;;;;;;-0.66;100.00;101932.78;105350;1273;61872;-72
2022/03/16 05:18:35;;;;;;;9.10;6.00;;;;;;;-0.64;100.00;101937.37;105160;1273;70928;-72
2022/03/16 05:21:08;;;;;;;16.10;9.00;;;;;;;-0.62;100.00;101942.15;105139;1273;71605;-71
2022/03/16 05:23:36;;;;;;;12.70;7.50;;;;;;;-0.61;100.00;101945.73;105422;1273;72659;-73
2022/03/16 05:26:08;;;;;;;9.40;5.80;;;;;;;-0.59;100.00;101948.59;105397;1273;62557;-71
2022/03/16 05:28:35;;;;;;;11.20;6.20;;;;;;;-0.55;100.00;101952.06;105315;1273;61479;-68
2022/03/16 05:31:02;;;;;;;15.00;9.00;;;;;;;-0.50;100.00;101949.91;105305;1273;74380;-67
2022/03/16 05:33:40;;;;;;;14.20;8.60;;;;;;;-0.43;100.00;101949.40;105171;1274;71321;-68
2022/03/16 05:36:12;;;;;;;13.30;9.60;;;;;;;-0.34;100.00;101954.04;105076;1275;74102;-66
2022/03/16 05:38:39;;;;;;;21.80;12.10;;;;;;;-0.26;100.00;101962.15;105108;1274;62502;-68
2022/03/16 05:41:11;;;;;;;16.30;10.60;;;;;;;-0.19;100.00;101970.67;105249;1274;61904;-72
2022/03/16 05:43:38;;;;;;;20.30;11.70;;;;;;;-0.12;100.00;101972.45;105184;1274;73350;-67
2022/03/16 05:46:10;;;;;;;19.10;11.40;;;;;;;-0.06;100.00;101963.96;105168;1275;71987;-68
2022/03/16 05:48:37;;;;;;;17.20;9.70;;;;;;;0.00;100.00;101960.70;105055;1274;74113;-68
2022/03/16 05:51:10;;;;;;;11.10;7.90;;;;;;;0.06;100.00;101959.75;105213;1274;61228;-69
2022/03/16 05:53:36;;;;;;;11.20;6.80;;;;;;;0.12;100.00;101960.11;105063;1274;60661;-68
2022/03/16 05:56:03;;;;;;;16.10;9.20;;;;;;;0.17;100.00;101963.02;105058;1276;73274;-70
2022/03/16 05:58:37;;;;;;;15.30;10.30;;;;;;;0.23;100.00;101962.55;105389;1271;71184;-71
2022/03/16 06:01:10;;;;;;;16.30;10.20;;;;;;;0.28;100.00;101967.00;105232;1273;59783;-67
2022/03/16 06:03:37;;;;;;;19.20;11.30;;;;;;;0.33;100.00;101973.16;105260;1273;61824;-67
2022/03/16 06:06:13;;;;;;;14.20;8.50;;;;;;;0.37;100.00;101976.81;105316;1273;60300;-68
2022/03/16 06:08:39;;;;;;;10.40;5.50;;;;;;;0.39;100.00;101984.55;105324;1273;72043;-69
2022/03/16 06:11:11;;;;;;;17.80;11.10;;;;;;;0.40;100.00;101989.16;105282;1273;71324;-68
2022/03/16 06:13:38;;;;;;;9.00;5.40;;;;;;;0.46;100.00;101993.08;105204;1273;72343;-67
2022/03/16 06:16:14;;;;;;;9.30;6.30;;;;;;;0.49;100.00;101997.11;105365;1273;59710;-68
2022/03/16 06:18:40;;;;;;;7.30;4.90;;;;;;;0.53;100.00;101999.52;105229;1273;60662;-68
2022/03/16 06:21:10;;;;;;;9.50;6.30;;;;;;;0.58;100.00;102004.10;105356;1273;74329;-68
2022/03/16 06:23:36;;;;;;;7.70;4.90;;;;;;;0.66;100.00;102005.80;105306;1273;72855;-67
2022/03/16 06:26:05;;;;;;;6.70;4.50;;;;;;;0.73;100.00;102012.41;105611;1273;59274;-68
2022/03/16 06:28:38;;;;;;;8.20;5.20;;;;;;;0.80;100.00;102011.02;105486;1271;61373;-68
2022/03/16 06:31:11;;;;;;;12.70;8.70;;;;;;;0.86;100.00;102009.48;105322;1273;59628;-69
2022/03/16 06:33:38;;;;;;;13.60;8.40;;;;;;;0.91;100.00;102016.70;105293;1271;73080;-68
2022/03/16 06:36:10;;;;;;;8.20;5.70;;;;;;;0.99;100.00;102017.86;105195;1271;72343;-67
2022/03/16 06:38:37;;;;;;;11.90;8.10;;;;;;;1.07;100.00;102019.87;105369;1271;74372;-67
2022/03/16 06:41:12;;;;;;;16.60;9.80;;;;;;;1.15;100.00;102022.79;105534;1271;61178;-69
2022/03/16 06:43:40;;;;;;;18.20;10.50;;;;;;;1.22;100.00;102026.95;105436;1271;59641;-68
2022/03/16 06:46:09;;;;;;;16.10;9.70;;;;;;;1.29;100.00;102030.09;105523;1271;74446;-65
2022/03/16 06:48:36;;;;;;;18.20;9.70;;;;;;;1.35;100.00;102038.95;105319;1271;71193;-68
2022/03/16 06:51:03;;;;;;;10.30;6.10;;;;;;;1.41;100.00;102038.30;105541;1271;60435;-67
2022/03/16 06:53:37;;;;;;;15.30;8.90;;;;;;;1.44;100.00;102037.96;105581;1270;61991;-67
2022/03/16 06:56:12;;;;;;;11.70;7.50;;;;;;;1.48;100.00;102037.21;105836;1271;61282;-68
2022/03/16 06:58:39;;;;;;;12.90;7.70;;;;;;;1.53;100.00;102032.77;105636;1271;73292;-68
2022/03/16 07:01:12;;;;;;;8.90;4.90;;;;;;;1.59;100.00;102036.76;105824;1271;71091;-70
2022/03/16 07:03:38;;;;;;;12.60;7.70;;;;;;;1.67;100.00;102039.35;105557;1271;71968;-68
2022/03/16 07:06:11;;;;;;;9.60;6.80;;;;;;;1.74;100.00;102049.42;106380;1271;59700;-71
2022/03/16 07:08:38;;;;;;;10.20;6.70;;;;;;;1.84;100.00;102044.34;105195;1271;60604;-69
2022/03/16 07:11:11;;;;;;;8.90;5.40;;;;;;;1.93;100.00;102048.54;105164;1271;72372;-70
2022/03/16 07:13:38;;;;;;;10.30;6.30;;;;;;;2.00;100.00;102049.69;105190;1271;72369;-69
2022/03/16 07:16:11;;;;;;;9.50;6.40;;;;;;;2.07;100.00;102056.48;105178;1273;73005;-70
2022/03/16 07:18:43;;;;;;;8.50;4.90;;;;;;;2.10;100.00;102061.05;104985;1271;61202;-72
2022/03/16 07:21:10;;;;;;;9.10;6.10;;;;;;;2.10;100.00;102063.84;105156;1271;60186;-70
2022/03/16 07:23:36;;;;;;;10.10;6.90;;;;;;;2.10;100.00;102063.66;105309;1271;59719;-69
2022/03/16 07:26:03;;;;;;;10.70;6.80;;;;;;;2.14;100.00;102062.37;105142;1272;61746;-70
2022/03/16 07:28:37;;;;;;;11.80;6.80;;;;;;;2.24;100.00;102060.56;105253;1271;74002;-68
2022/03/16 07:31:13;;;;;;;13.30;8.00;;;;;;;2.36;100.00;102058.52;105141;1271;62137;-71
2022/03/16 07:33:40;;;;;;;9.90;7.00;;;;;;;2.50;100.00;102056.80;105094;1271;61300;-68
2022/03/16 07:36:12;;;;;;;12.80;7.60;;;;;;;2.61;100.00;102053.21;105131;1273;73442;-68
2022/03/16 07:38:39;;;;;;;11.70;6.80;;;;;;;2.70;100.00;102054.59;105166;1271;72209;-66
2022/03/16 07:41:11;;;;;;;16.20;8.70;;;;;;;2.81;100.00;102058.81;105172;1271;74220;-70
2022/03/16 07:43:38;;;;;;;11.60;7.50;;;;;;;2.95;100.00;102059.26;105199;1272;62475;-68
2022/03/16 07:46:11;;;;;;;11.70;6.60;;;;;;;3.07;100.00;102061.33;105033;1271;60398;-72
2022/03/16 07:48:40;;;;;;;13.00;7.80;;;;;;;3.15;100.00;102060.84;105153;1273;73298;-69
2022/03/16 07:51:13;;;;;;;11.50;7.20;;;;;;;3.25;100.00;102061.66;105236;1271;70357;-69
2022/03/16 07:53:40;;;;;;;11.30;7.00;;;;;;;3.38;100.00;102063.65;105247;1271;74360;-71
2022/03/16 07:56:10;;;;;;;11.10;6.50;;;;;;;3.49;100.00;102072.39;105294;1271;61415;-72
2022/03/16 07:58:38;;;;;;;10.90;6.80;;;;;;;3.58;100.00;102074.80;105280;1271;59869;-71
2022/03/16 08:01:11;;;;;;;15.50;8.50;;;;;;;3.64;100.00;102077.40;105331;1270;74348;-72
2022/03/16 08:03:38;;;;;;;13.60;8.30;;;;;;;3.74;100.00;102071.77;106004;1273;71395;-71
2022/03/16 08:06:11;;;;;;;13.70;8.80;;;;;;;3.87;100.00;102075.33;105244;1271;73774;-72
2022/03/16 08:08:39;;;;;;;13.20;8.30;;;;;;;4.00;100.00;102081.10;105290;1270;61452;-71
2022/03/16 08:11:12;;;;;;;9.20;5.90;;;;;;;4.15;100.00;102076.13;105279;1271;61423;-68
2022/03/16 08:13:38;;;;;;;13.10;8.10;;;;;;;4.30;100.00;102074.44;105194;1271;73476;-71
2022/03/16 08:16:16;;;;;;;11.00;6.80;;;;;;;4.43;100.00;102075.16;105200;1273;72640;-72
2022/03/16 08:18:43;;;;;;;12.40;7.70;;;;;;;4.54;100.00;102076.20;105042;1271;73912;-70
2022/03/16 08:21:13;;;;;;;15.60;10.00;;;;;;;4.64;100.00;102077.30;105277;1273;59519;-71
2022/03/16 08:23:39;;;;;;;11.40;8.20;;;;;;;4.73;100.00;102077.58;105251;1271;60525;-71
2022/03/16 08:26:16;;;;;;;10.70;7.40;;;;;;;4.84;100.00;102075.09;105254;1271;73348;-68
2022/03/16 08:28:43;;;;;;;16.30;10.30;;;;;;;4.97;100.00;102077.52;105135;1273;72593;-69
2022/03/16 08:31:15;;;;;;;17.90;10.90;;;;;;;5.13;100.00;102081.86;105170;1273;74006;-71
2022/03/16 08:33:42;;;;;;;21.50;12.20;;;;;;;5.25;100.00;102088.23;105093;1271;62651;-69
2022/03/16 08:36:11;;;;;;;18.40;12.60;;;;;;;5.39;99.91;102089.21;105053;1271;61572;-71
2022/03/16 08:38:38;;;;;;;16.80;10.70;;;;;;;5.60;100.00;102092.14;105130;1271;73352;-69
2022/03/16 08:41:13;;;;;;;15.40;9.80;;;;;;;5.83;99.98;102089.81;105243;1273;72831;-70
2022/03/16 08:43:40;;;;;;;16.50;10.10;;;;;;;6.07;99.82;102088.97;105253;1271;75564;-67
2022/03/16 08:46:12;;;;;;;21.60;11.80;;;;;;;6.28;99.16;102089.41;105254;1271;61129;-70
2022/03/16 08:48:39;;;;;;;17.40;10.90;;;;;;;6.46;98.56;102092.96;105367;1273;62222;-69
2022/03/16 08:51:12;;;;;;;18.20;10.60;;;;;;;6.67;98.13;102093.04;105382;1271;73754;-69
2022/03/16 08:53:39;;;;;;;16.90;9.70;;;;;;;6.88;97.45;102086.31;105283;1273;71519;-68
2022/03/16 08:56:15;;;;;;;22.00;11.40;;;;;;;7.04;95.80;102087.60;105189;1273;72888;-67
2022/03/16 08:58:41;;;;;;;17.50;10.90;;;;;;;7.21;95.83;102085.59;105270;1273;61918;-70
2022/03/16 09:01:14;;;;;;;18.80;11.40;;;;;;;7.37;94.76;102087.50;105140;1273;60597;-69
2022/03/16 09:03:41;;;;;;;20.80;11.90;;;;;;;7.50;94.01;102095.33;105169;1271;74153;-69
2022/03/16 09:06:14;;;;;;;25.90;13.10;;;;;;;7.60;92.40;102101.04;106674;1271;71335;-69
2022/03/16 09:08:40;;;;;;;17.40;11.10;;;;;;;7.70;92.05;102102.30;105170;1271;73984;-69
2022/03/16 09:11:13;;;;;;;21.40;12.80;;;;;;;7.86;91.98;102104.92;105269;1270;62095;-67
2022/03/16 09:13:40;;;;;;;15.80;10.40;;;;;;;8.01;91.58;102108.50;105203;1271;61446;-69
2022/03/16 09:16:17;;;;;;;14.70;9.30;;;;;;;8.14;90.80;102112.19;105408;1271;75165;-66
2022/03/16 09:18:49;;;;;;;22.70;12.60;;;;;;;8.29;90.56;102118.63;105094;1273;72264;-67
2022/03/16 09:21:16;;;;;;;15.60;10.60;;;;;;;8.35;89.67;102123.89;105504;1271;73958;-71
2022/03/16 09:23:43;;;;;;;21.20;12.80;;;;;;;8.41;88.98;102127.38;104991;1271;60481;-68
2022/03/16 09:26:13;;;;;;;21.90;13.20;;;;;;;8.45;88.57;102127.88;105065;1271;61379;-71
2022/03/16 09:28:39;;;;;;;23.40;14.30;;;;;;;8.49;88.43;102126.70;104799;1271;74331;-68
2022/03/16 09:31:12;;;;;;;29.80;16.90;;;;;;;8.56;88.22;102135.08;105030;1271;70152;-69
2022/03/16 09:33:40;;;;;;;27.60;16.80;;;;;;;8.66;87.44;102130.39;104914;1271;72913;-67
2022/03/16 09:36:13;;;;;;;30.80;14.90;;;;;;;8.74;85.98;102134.34;105408;1271;62397;-71
2022/03/16 09:38:39;;;;;;;26.00;14.40;;;;;;;8.79;85.04;102127.54;105097;1272;61646;-69
2022/03/16 09:41:12;;;;;;;26.60;15.40;;;;;;;8.86;84.37;102124.20;105096;1271;75247;-69
2022/03/16 09:43:39;;;;;;;27.40;14.30;;;;;;;8.93;84.31;102125.11;105088;1273;71476;-69
2022/03/16 09:46:22;;;;;;;23.80;14.00;;;;;;;9.05;84.32;102120.80;105020;1271;72870;-71
2022/03/16 09:48:49;;;;;;;31.20;16.70;;;;;;;9.20;84.21;102114.90;105299;1271;63060;-72
2022/03/16 09:51:17;;;;;;;24.20;14.70;;;;;;;9.36;83.79;102113.21;105065;1271;61686;-70
2022/03/16 09:53:43;;;;;;;27.00;15.00;;;;;;;9.56;84.07;102113.59;105195;1271;72700;-70
2022/03/16 09:56:19;;;;;;;22.30;12.00;;;;;;;9.73;83.52;102108.22;105213;1271;71353;-69
2022/03/16 09:58:46;;;;;;;23.30;13.90;;;;;;;9.91;81.99;102111.42;105068;1274;73922;-68
2022/03/16 10:01:13;;;;;;;20.50;13.20;;;;;;;10.09;81.84;102116.05;105067;1271;61042;-70
2022/03/16 10:03:40;;;;;;;22.60;13.30;;;;;;;10.19;80.69;102114.38;105214;1273;60336;-69
2022/03/16 10:06:17;;;;;;;23.70;14.00;;;;;;;10.31;80.99;102109.48;105196;1271;74079;-69
2022/03/16 10:13:13;;;;;;;20.30;12.50;;;;;;;10.51;80.65;102106.29;104920;1271;72458;-71
2022/03/16 10:14:20;;;;;;;20.30;12.00;;;;;;;10.88;78.68;102100.36;105003;1273;60595;-70
2022/03/16 10:19:54;;;;;;;16.00;8.70;;;;;;;11.25;77.27;102100.99;105113;1271;74086;-69
2022/03/16 10:22:25;;;;;;;20.30;12.20;;;;;;;11.40;75.31;102103.48;105101;1271;72425;-69
2022/03/16 10:25:00;;;;;;;18.00;9.80;;;;;;;11.55;75.25;102104.17;104999;1271;72899;-68
2022/03/16 10:27:27;;;;;;;19.90;11.40;;;;;;;11.57;70.83;102098.30;105074;1273;61642;-69
2022/03/16 10:29:55;;;;;;;18.90;10.20;;;;;;;11.62;72.19;102101.20;105113;1271;61407;-70
2022/03/16 10:32:22;;;;;;;22.30;12.50;;;;;;;11.64;70.39;102094.52;105118;1272;75115;-69
2022/03/16 10:34:54;;;;;;;19.00;10.30;;;;;;;11.62;70.72;102097.34;105107;1274;72420;-68
2022/03/16 10:37:22;;;;;;;19.10;11.70;;;;;;;11.62;70.13;102095.77;105028;1274;72952;-68
2022/03/16 10:39:51;;;;;;;21.10;11.10;;;;;;;11.68;70.69;102091.21;105078;1273;61644;-68
2022/03/16 10:48:16;;;;;;;;;;;;;;;12.19;68.38;102089.67;105224;1274;71475;-66
2022/03/16 10:50:44;;;;;;;17.00;10.10;;;;;;;12.32;66.34;102085.77;105144;1274;73094;-69
2022/03/16 10:53:14;;;;;;;16.50;9.60;;;;;;;12.48;66.43;102084.84;105032;1274;61148;-69
2022/03/16 10:55:42;;;;;;;16.70;10.30;;;;;;;12.66;65.71;102084.69;104954;1274;60421;-70
2022/03/16 10:58:10;;;;;;;18.60;10.40;;;;;;;12.88;66.93;102081.23;105077;1273;73749;-69
2022/03/16 11:00:39;;;;;;;18.50;9.70;;;;;;;13.13;65.92;102070.96;105032;1274;72344;-68
2022/03/16 11:03:16;;;;;;;19.80;10.60;;;;;;;13.26;62.97;102068.12;105144;1274;73229;-69
2022/03/16 11:05:43;;;;;;;17.30;10.20;;;;;;;13.44;64.18;102064.28;105042;1273;61662;-69
2022/03/16 11:08:10;;;;;;;19.40;11.90;;;;;;;13.67;62.90;102061.50;105028;1274;61581;-70
2022/03/16 11:10:40;;;;;;;15.40;8.70;;;;;;;13.80;61.35;102062.10;105159;1273;74158;-70
2022/03/16 11:16:00;;;;;;;19.10;10.80;;;;;;;13.96;60.36;102058.98;105132;1270;73328;-67
2022/03/16 11:18:27;;;;;;;16.70;9.20;;;;;;;13.97;60.55;102062.08;105048;1274;61463;-69
2022/03/16 11:20:56;;;;;;;16.60;9.20;;;;;;;14.00;59.65;102063.22;105142;1274;60727;-66
2022/03/16 11:26:37;;;;;;;14.70;8.10;;;;;;;14.18;59.11;102053.67;105201;1274;72189;-69
2022/03/16 11:29:25;;;;;;;12.60;6.00;;;;;;;14.26;58.27;102046.02;105114;1272;73971;-70
2022/03/16 11:32:09;;;;;;;14.10;6.40;;;;;;;14.36;56.57;102042.67;105098;1274;60511;-70
2022/03/16 11:34:36;;;;;;;16.60;8.30;;;;;;;14.42;56.27;102044.41;106269;1273;61681;-67
2022/03/16 11:37:08;;;;;;;11.70;8.10;;;;;;;14.49;55.72;102040.99;106147;1274;76358;-68
2022/03/16 11:39:46;;;;;;;14.60;7.20;;;;;;;14.58;55.14;102038.61;105693;1273;71412;-67
2022/03/16 11:42:18;;;;;;;14.10;7.50;;;;;;;14.58;53.37;102038.81;105080;1274;72901;-69
2022/03/16 11:44:45;;;;;;;10.60;6.50;;;;;;;14.56;54.05;102036.14;105034;1273;61548;-69
2022/03/16 11:47:16;;;;;;;13.10;7.20;;;;;;;14.66;54.86;102034.91;104954;1274;60599;-70
2022/03/16 11:50:04;;;;;;;10.80;5.90;;;;;;;14.80;54.85;102021.58;105146;1274;75374;-70
2022/03/16 11:53:00;;;;;;;10.50;5.90;;;;;;;14.76;52.22;102020.04;104922;1274;70856;-71
2022/03/16 11:55:39;;;;;;;11.70;6.60;;;;;;;14.71;52.56;102013.03;105053;1274;72979;-71
2022/03/16 11:58:16;;;;;;;12.80;6.00;;;;;;;14.81;52.86;102007.42;105016;1274;60412;-67
2022/03/16 12:00:44;;;;;;;11.80;6.90;;;;;;;14.96;51.93;102006.70;105083;1274;61795;-67